Coffman Cove, AK

10:49 AM AKDT op 02 september 2014 (GMT -0800)
Ketchikan International | Change Station
CLOSE
Current Station
Luchthaven
Location: Ketchikan,
Geometrische hoogte: 95 ft
Nabije weerstations

Hoogte 95 ft 55.36 °N, 131.71 °W | Updated 56 minutes ago

Scattered Clouds
Licht bewolkt
59 °F
Voelt als 59 °F
N
9
Wind Variabel Wind van NNW

Vandaag
Hoog -- | Laag -- °F
--% Kans op neerslag
Gisteren
Hoog -- | Laag -- °F
Precip. -- inches
5:54 AM 7:36 PM
Eerste kwartier, 54% visible
Druk 30.03 inches
Zicht 10.0 mijlen
Wolken Licht bewolkt 2500 ft
Dauwpunt 49 °F
Vochtigheid 69%
Neerslag 0.00 inches
Dikte sneeuw Niet beschikbaar.
UV 3 van de 12
Pollen Niet beschikbaar.
Luchtkwaliteit Niet beschikbaar.
Flu Activity Niet beschikbaar.
METAR PAKT 021753Z 33008KT 10SM SCT025 15/09 A3002 RMK AO2 SLP167 T01500094 10150 20100 53005

More Conditions Fewer Conditions

Druk 30.03 inches
Zicht 10.0 mijlen
Wolken Licht bewolkt 2500 ft
Dauwpunt 49 °F
Vochtigheid 69%
Neerslag 0.00 inches
Dikte sneeuw Niet beschikbaar.
UV 3 van de 12
Pollen Niet beschikbaar.
Luchtkwaliteit Niet beschikbaar.
Flu Activity Niet beschikbaar.
METAR PAKT 021753Z 33008KT 10SM SCT025 15/09 A3002 RMK AO2 SLP167 T01500094 10150 20100 53005

More Conditions Fewer Conditions

10-Day Weather Forecast

Almanac

Astronomie

Sep. 02, 2014 Opkomst Ondergang
Werkelijke tijd 5:54 AM AKDT 7:36 PM AKDT
Burgerlijke schemering 5:16 AM AKDT 8:15 PM AKDT
Nautische schemering 4:28 AM AKDT 9:02 PM AKDT
Astronomische schemering 3:32 AM AKDT 9:57 PM AKDT
Maan 2:59 PM AKDT 11:23 PM AKDT
Golflengte van het zichtbare licht 14h 59m
Daglengte
13h 42m
Tomorrow will be 4m 25s shorter.
Eerste kwartier, 54% of the Moon is Illuminated
Vandaag
Eerste kwartier
sep 8
Volle maan
sep 15
Laatste kwartier
sep 24
Nieuw
oktober 1
Eerste kwartier

Extremen vandaag

State Highs State Lows

Community

WunderPhotos

Upload Photos

1,749,743 foto’s ge-upload!

WunderBlogs® & News

By Dr. Jeff Masters
Director of Meteorology, Weather Underground
By Kari Strenfel
Meteorologist, Weather Underground
By Christopher C. Burt
Weather Historian, Weather Underground
September 2, 2014
September 2, 2014
September 2, 2014

Nearby

Luchtkwaliteit

Not available.

Dikte sneeuw

Station Depth Geometrische hoogte
Long Lake 0 in 820 ft
Upper Tsaina River 0 in 1750 ft
Moraine 0 in 2100 ft
Nuka Glacier 67 in 1250 ft
Grouse Creek Divide 0 in 700 ft

Aardbevingen

Stad Distance Mag. Time & Date
No recent earthquake activity has been reported nearby.
Minimum magnitude displayed is 2.5.

Watertemperatuur langs de kust

Plaats Temperatuur
Geen meldingen van stations

Nabije weerstations